sensor_id;sensor_type;location;lat;lon;timestamp;pressure;altitude;pressure_sealevel;temperature;humidity
27040;BME280;14589;51.578;7.306;2023-05-20T00:00:45;101793.47;;;12.06;66.61
27040;BME280;14589;51.578;7.306;2023-05-20T00:03:18;101802.03;;;12.01;66.49
27040;BME280;14589;51.578;7.306;2023-05-20T00:05:49;101801.69;;;11.95;66.90
27040;BME280;14589;51.578;7.306;2023-05-20T00:08:19;101799.22;;;11.92;67.30
27040;BME280;14589;51.578;7.306;2023-05-20T00:10:50;101790.47;;;11.88;67.32
27040;BME280;14589;51.578;7.306;2023-05-20T00:13:20;101795.31;;;11.85;67.58
27040;BME280;14589;51.578;7.306;2023-05-20T00:15:51;101802.97;;;11.80;67.82
27040;BME280;14589;51.578;7.306;2023-05-20T00:18:22;101801.75;;;11.72;67.61
27040;BME280;14589;51.578;7.306;2023-05-20T00:20:52;101791.41;;;11.66;67.74
27040;BME280;14589;51.578;7.306;2023-05-20T00:23:23;101790.56;;;11.66;67.86
27040;BME280;14589;51.578;7.306;2023-05-20T00:25:54;101795.88;;;11.56;68.67
27040;BME280;14589;51.578;7.306;2023-05-20T00:28:24;101790.72;;;11.53;68.72
27040;BME280;14589;51.578;7.306;2023-05-20T00:30:55;101792.91;;;11.59;68.00
27040;BME280;14589;51.578;7.306;2023-05-20T00:33:25;101790.72;;;11.53;67.98
27040;BME280;14589;51.578;7.306;2023-05-20T00:35:56;101798.88;;;11.53;68.28
27040;BME280;14589;51.578;7.306;2023-05-20T00:38:26;101799.00;;;11.52;68.73
27040;BME280;14589;51.578;7.306;2023-05-20T00:40:56;101793.44;;;11.42;69.10
27040;BME280;14589;51.578;7.306;2023-05-20T00:43:27;101799.91;;;11.41;69.48
27040;BME280;14589;51.578;7.306;2023-05-20T00:45:57;101799.41;;;11.36;68.91
27040;BME280;14589;51.578;7.306;2023-05-20T00:48:38;101797.94;;;11.32;69.81
27040;BME280;14589;51.578;7.306;2023-05-20T00:51:11;101801.16;;;11.26;69.88
27040;BME280;14589;51.578;7.306;2023-05-20T00:53:42;101796.72;;;11.25;69.80
27040;BME280;14589;51.578;7.306;2023-05-20T00:56:13;101803.50;;;11.19;70.18
27040;BME280;14589;51.578;7.306;2023-05-20T00:58:44;101794.78;;;11.16;70.51
27040;BME280;14589;51.578;7.306;2023-05-20T01:01:18;101793.53;;;11.09;70.92
27040;BME280;14589;51.578;7.306;2023-05-20T01:03:48;101794.78;;;11.05;71.30
27040;BME280;14589;51.578;7.306;2023-05-20T01:06:18;101795.03;;;11.02;71.54
27040;BME280;14589;51.578;7.306;2023-05-20T01:08:49;101797.38;;;10.95;71.62
27040;BME280;14589;51.578;7.306;2023-05-20T01:11:34;101785.19;;;10.89;72.61
27040;BME280;14589;51.578;7.306;2023-05-20T01:14:07;101789.84;;;10.87;72.24
27040;BME280;14589;51.578;7.306;2023-05-20T01:16:41;101799.25;;;10.83;71.71
27040;BME280;14589;51.578;7.306;2023-05-20T01:19:30;101798.00;;;10.76;72.40
27040;BME280;14589;51.578;7.306;2023-05-20T01:22:06;101793.84;;;10.72;72.84
27040;BME280;14589;51.578;7.306;2023-05-20T01:24:43;101792.59;;;10.65;73.01
27040;BME280;14589;51.578;7.306;2023-05-20T01:27:13;101785.69;;;10.61;73.64
27040;BME280;14589;51.578;7.306;2023-05-20T01:29:45;101783.34;;;10.57;73.31
27040;BME280;14589;51.578;7.306;2023-05-20T01:32:31;101779.03;;;10.54;73.63
27040;BME280;14589;51.578;7.306;2023-05-20T01:35:05;101778.28;;;10.52;73.36
27040;BME280;14589;51.578;7.306;2023-05-20T01:37:38;101779.03;;;10.54;74.04
27040;BME280;14589;51.578;7.306;2023-05-20T01:40:14;101780.13;;;10.51;73.94
27040;BME280;14589;51.578;7.306;2023-05-20T01:42:45;101776.81;;;10.48;73.67
27040;BME280;14589;51.578;7.306;2023-05-20T01:45:23;101781.47;;;10.46;73.75
27040;BME280;14589;51.578;7.306;2023-05-20T01:47:54;101770.75;;;10.44;73.75
27040;BME280;14589;51.578;7.306;2023-05-20T01:50:24;101763.75;;;10.42;74.43
27040;BME280;14589;51.578;7.306;2023-05-20T01:52:57;101775.47;;;10.42;73.94
27040;BME280;14589;51.578;7.306;2023-05-20T01:55:28;101764.22;;;10.36;73.90
27040;BME280;14589;51.578;7.306;2023-05-20T01:57:58;101773.47;;;10.33;74.02
27040;BME280;14589;51.578;7.306;2023-05-20T02:00:31;101761.88;;;10.31;73.82
27040;BME280;14589;51.578;7.306;2023-05-20T02:03:03;101762.50;;;10.35;73.76
27040;BME280;14589;51.578;7.306;2023-05-20T02:05:33;101777.66;;;10.37;73.96
27040;BME280;14589;51.578;7.306;2023-05-20T02:08:04;101765.09;;;10.36;73.05
27040;BME280;14589;51.578;7.306;2023-05-20T02:10:35;101772.22;;;10.37;73.43
27040;BME280;14589;51.578;7.306;2023-05-20T02:13:05;101771.72;;;10.43;73.17
27040;BME280;14589;51.578;7.306;2023-05-20T02:15:40;101769.66;;;10.47;73.28
27040;BME280;14589;51.578;7.306;2023-05-20T02:18:10;101769.66;;;10.47;72.46
27040;BME280;14589;51.578;7.306;2023-05-20T02:20:42;101767.94;;;10.46;72.13
27040;BME280;14589;51.578;7.306;2023-05-20T02:23:13;101774.44;;;10.43;72.56
27040;BME280;14589;51.578;7.306;2023-05-20T02:25:43;101772.59;;;10.44;73.00
27040;BME280;14589;51.578;7.306;2023-05-20T02:28:14;101777.31;;;10.42;72.50
27040;BME280;14589;51.578;7.306;2023-05-20T02:30:45;101775.47;;;10.42;72.41
27040;BME280;14589;51.578;7.306;2023-05-20T02:33:16;101772.97;;;10.39;72.62
27040;BME280;14589;51.578;7.306;2023-05-20T02:35:47;101781.75;;;10.43;72.76
27040;BME280;14589;51.578;7.306;2023-05-20T02:38:17;101778.28;;;10.41;72.53
27040;BME280;14589;51.578;7.306;2023-05-20T02:40:48;101778.03;;;10.33;73.09
27040;BME280;14589;51.578;7.306;2023-05-20T02:43:19;101785.06;;;10.35;73.07
27040;BME280;14589;51.578;7.306;2023-05-20T02:45:50;101775.41;;;10.31;72.61
27040;BME280;14589;51.578;7.306;2023-05-20T02:48:20;101775.69;;;10.28;73.31
27040;BME280;14589;51.578;7.306;2023-05-20T02:50:51;101768.41;;;10.29;73.76
27040;BME280;14589;51.578;7.306;2023-05-20T02:53:22;101767.78;;;10.25;73.73
27040;BME280;14589;51.578;7.306;2023-05-20T02:55:52;101770.75;;;10.22;73.82
27040;BME280;14589;51.578;7.306;2023-05-20T02:58:23;101768.25;;;10.19;73.96
27040;BME280;14589;51.578;7.306;2023-05-20T03:00:55;101765.38;;;10.09;74.90
27040;BME280;14589;51.578;7.306;2023-05-20T03:03:27;101768.31;;;10.06;74.92
27040;BME280;14589;51.578;7.306;2023-05-20T03:05:57;101761.78;;;9.98;75.39
27040;BME280;14589;51.578;7.306;2023-05-20T03:08:28;101757.75;;;10.03;75.17
27040;BME280;14589;51.578;7.306;2023-05-20T03:11:00;101771.50;;;10.00;75.72
27040;BME280;14589;51.578;7.306;2023-05-20T03:13:31;101771.78;;;9.97;75.36
27040;BME280;14589;51.578;7.306;2023-05-20T03:16:02;101773.00;;;9.93;75.76
27040;BME280;14589;51.578;7.306;2023-05-20T03:18:32;101769.44;;;9.93;75.95
27040;BME280;14589;51.578;7.306;2023-05-20T03:21:03;101759.19;;;9.85;76.14
27040;BME280;14589;51.578;7.306;2023-05-20T03:23:34;101761.50;;;9.79;76.80
27040;BME280;14589;51.578;7.306;2023-05-20T03:26:04;101768.75;;;9.78;77.34
27040;BME280;14589;51.578;7.306;2023-05-20T03:28:36;101777.00;;;9.77;77.43
27040;BME280;14589;51.578;7.306;2023-05-20T03:31:07;101774.41;;;9.75;77.19
27040;BME280;14589;51.578;7.306;2023-05-20T03:33:38;101776.38;;;9.73;77.62
27040;BME280;14589;51.578;7.306;2023-05-20T03:36:08;101771.19;;;9.70;77.71
27040;BME280;14589;51.578;7.306;2023-05-20T03:38:39;101771.44;;;9.67;77.68
27040;BME280;14589;51.578;7.306;2023-05-20T03:41:09;101766.38;;;9.62;77.87
27040;BME280;14589;51.578;7.306;2023-05-20T03:43:40;101766.88;;;9.67;78.46
27040;BME280;14589;51.578;7.306;2023-05-20T03:46:10;101751.09;;;9.61;78.15
27040;BME280;14589;51.578;7.306;2023-05-20T03:48:41;101761.47;;;9.67;78.55
27040;BME280;14589;51.578;7.306;2023-05-20T03:51:11;101756.25;;;9.64;78.94
27040;BME280;14589;51.578;7.306;2023-05-20T03:53:42;101756.16;;;9.66;78.75
27040;BME280;14589;51.578;7.306;2023-05-20T03:56:13;101754.19;;;9.68;79.38
27040;BME280;14589;51.578;7.306;2023-05-20T03:58:44;101754.72;;;9.73;78.63
27040;BME280;14589;51.578;7.306;2023-05-20T04:01:15;101754.34;;;9.78;79.09
27040;BME280;14589;51.578;7.306;2023-05-20T04:03:45;101756.34;;;9.87;79.17
27040;BME280;14589;51.578;7.306;2023-05-20T04:06:16;101756.59;;;9.95;78.54
27040;BME280;14589;51.578;7.306;2023-05-20T04:08:46;101751.69;;;10.00;78.42
27040;BME280;14589;51.578;7.306;2023-05-20T04:11:17;101752.81;;;10.08;78.20
27040;BME280;14589;51.578;7.306;2023-05-20T04:13:47;101755.81;;;10.17;78.19
27040;BME280;14589;51.578;7.306;2023-05-20T04:16:18;101750.03;;;10.21;77.70
27040;BME280;14589;51.578;7.306;2023-05-20T04:18:49;101757.69;;;10.27;77.82
27040;BME280;14589;51.578;7.306;2023-05-20T04:21:20;101762.50;;;10.35;77.57
27040;BME280;14589;51.578;7.306;2023-05-20T04:23:51;101762.00;;;10.41;77.22
27040;BME280;14589;51.578;7.306;2023-05-20T04:26:22;101763.38;;;10.46;77.30
27040;BME280;14589;51.578;7.306;2023-05-20T04:28:56;101762.75;;;10.54;77.04
27040;BME280;14589;51.578;7.306;2023-05-20T04:31:31;101751.53;;;10.59;77.28
27040;BME280;14589;51.578;7.306;2023-05-20T04:34:02;101762.25;;;10.71;76.67
27040;BME280;14589;51.578;7.306;2023-05-20T04:36:34;101755.09;;;10.81;76.20
27040;BME280;14589;51.578;7.306;2023-05-20T04:39:07;101740.78;;;10.90;75.25
27040;BME280;14589;51.578;7.306;2023-05-20T04:41:38;101752.09;;;11.07;74.80
27040;BME280;14589;51.578;7.306;2023-05-20T04:44:09;101754.41;;;11.22;73.74
27040;BME280;14589;51.578;7.306;2023-05-20T04:46:41;101760.03;;;11.30;74.38
27040;BME280;14589;51.578;7.306;2023-05-20T04:49:13;101768.50;;;11.48;73.07
27040;BME280;14589;51.578;7.306;2023-05-20T04:51:44;101759.31;;;11.60;72.97
27040;BME280;14589;51.578;7.306;2023-05-20T04:54:19;101754.22;;;11.78;73.18
27040;BME280;14589;51.578;7.306;2023-05-20T04:56:49;101757.84;;;11.88;71.81
27040;BME280;14589;51.578;7.306;2023-05-20T04:59:20;101762.91;;;12.13;70.26
27040;BME280;14589;51.578;7.306;2023-05-20T05:01:50;101747.78;;;12.21;70.09
27040;BME280;14589;51.578;7.306;2023-05-20T05:04:23;101749.13;;;12.36;68.99
27040;BME280;14589;51.578;7.306;2023-05-20T05:06:54;101751.91;;;12.45;68.38
27040;BME280;14589;51.578;7.306;2023-05-20T05:09:24;101768.88;;;12.59;67.88
27040;BME280;14589;51.578;7.306;2023-05-20T05:11:56;101753.31;;;12.70;68.49
27040;BME280;14589;51.578;7.306;2023-05-20T05:14:26;101748.88;;;12.79;66.51
27040;BME280;14589;51.578;7.306;2023-05-20T05:16:57;101753.50;;;12.88;67.10
27040;BME280;14589;51.578;7.306;2023-05-20T05:19:27;101751.50;;;12.90;66.17
27040;BME280;14589;51.578;7.306;2023-05-20T05:21:58;101753.25;;;13.01;65.61
27040;BME280;14589;51.578;7.306;2023-05-20T05:24:29;101754.69;;;13.05;65.13
27040;BME280;14589;51.578;7.306;2023-05-20T05:26:59;101759.00;;;13.07;65.69
27040;BME280;14589;51.578;7.306;2023-05-20T05:29:30;101751.63;;;13.19;64.52
27040;BME280;14589;51.578;7.306;2023-05-20T05:32:00;101740.84;;;13.17;64.86
27040;BME280;14589;51.578;7.306;2023-05-20T05:34:31;101743.44;;;13.19;64.32
27040;BME280;14589;51.578;7.306;2023-05-20T05:37:01;101744.16;;;13.30;63.66
27040;BME280;14589;51.578;7.306;2023-05-20T05:39:32;101741.28;;;13.22;64.32
27040;BME280;14589;51.578;7.306;2023-05-20T05:42:04;101736.16;;;13.39;63.83
27040;BME280;14589;51.578;7.306;2023-05-20T05:44:34;101742.63;;;13.57;63.82
27040;BME280;14589;51.578;7.306;2023-05-20T05:47:06;101737.88;;;13.59;62.39
27040;BME280;14589;51.578;7.306;2023-05-20T05:49:36;101743.31;;;13.78;62.69
27040;BME280;14589;51.578;7.306;2023-05-20T05:52:07;101740.72;;;13.86;61.88
27040;BME280;14589;51.578;7.306;2023-05-20T05:54:38;101726.06;;;14.06;61.13
27040;BME280;14589;51.578;7.306;2023-05-20T05:57:08;101721.13;;;14.19;60.39
27040;BME280;14589;51.578;7.306;2023-05-20T05:59:41;101725.84;;;14.37;59.93
27040;BME280;14589;51.578;7.306;2023-05-20T06:02:13;101728.56;;;14.37;59.67
27040;BME280;14589;51.578;7.306;2023-05-20T06:04:44;101728.09;;;14.51;59.60
27040;BME280;14589;51.578;7.306;2023-05-20T06:07:15;101726.09;;;14.80;58.71
27040;BME280;14589;51.578;7.306;2023-05-20T06:09:45;101722.44;;;14.89;58.62
27040;BME280;14589;51.578;7.306;2023-05-20T06:12:16;101740.31;;;15.11;58.05
27040;BME280;14589;51.578;7.306;2023-05-20T06:14:47;101727.50;;;15.12;57.80
27040;BME280;14589;51.578;7.306;2023-05-20T06:17:17;101730.41;;;15.28;57.60
27040;BME280;14589;51.578;7.306;2023-05-20T06:19:48;101725.81;;;15.28;57.35
27040;BME280;14589;51.578;7.306;2023-05-20T06:22:20;101728.66;;;15.09;57.97
27040;BME280;14589;51.578;7.306;2023-05-20T06:24:50;101725.38;;;14.78;58.56
27040;BME280;14589;51.578;7.306;2023-05-20T06:27:21;101715.16;;;14.53;59.28
27040;BME280;14589;51.578;7.306;2023-05-20T06:29:53;101717.75;;;14.54;59.17
27040;BME280;14589;51.578;7.306;2023-05-20T06:32:23;101718.22;;;14.50;59.52
27040;BME280;14589;51.578;7.306;2023-05-20T06:34:55;101718.53;;;14.37;60.24
27040;BME280;14589;51.578;7.306;2023-05-20T06:37:26;101715.34;;;14.32;59.96
27040;BME280;14589;51.578;7.306;2023-05-20T06:39:57;101714.91;;;14.37;60.31
27040;BME280;14589;51.578;7.306;2023-05-20T06:42:27;101724.56;;;14.31;60.09
27040;BME280;14589;51.578;7.306;2023-05-20T06:45:17;101720.97;;;14.31;60.47
27040;BME280;14589;51.578;7.306;2023-05-20T06:47:53;101723.09;;;14.37;60.75
27040;BME280;14589;51.578;7.306;2023-05-20T06:50:24;101711.91;;;14.40;61.42
27040;BME280;14589;51.578;7.306;2023-05-20T06:52:55;101717.78;;;14.35;60.89
27040;BME280;14589;51.578;7.306;2023-05-20T06:55:25;101713.91;;;14.47;60.71
27040;BME280;14589;51.578;7.306;2023-05-20T06:57:57;101727.94;;;14.52;60.78
27040;BME280;14589;51.578;7.306;2023-05-20T07:00:28;101719.34;;;14.47;59.80
27040;BME280;14589;51.578;7.306;2023-05-20T07:02:59;101718.44;;;14.56;59.54
27040;BME280;14589;51.578;7.306;2023-05-20T07:05:29;101710.09;;;14.58;59.65
27040;BME280;14589;51.578;7.306;2023-05-20T07:08:01;101711.53;;;14.62;60.03
27040;BME280;14589;51.578;7.306;2023-05-20T07:10:31;101709.09;;;14.59;59.61
27040;BME280;14589;51.578;7.306;2023-05-20T07:13:02;101719.88;;;14.61;59.97
27040;BME280;14589;51.578;7.306;2023-05-20T07:15:32;101716.44;;;14.58;59.54
27040;BME280;14589;51.578;7.306;2023-05-20T07:18:03;101713.25;;;14.63;59.75
27040;BME280;14589;51.578;7.306;2023-05-20T07:20:34;101710.97;;;14.58;60.75
27040;BME280;14589;51.578;7.306;2023-05-20T07:23:09;101712.56;;;14.61;60.00
27040;BME280;14589;51.578;7.306;2023-05-20T07:25:45;101720.16;;;14.57;60.80
27040;BME280;14589;51.578;7.306;2023-05-20T07:28:16;101724.81;;;14.47;60.27
27040;BME280;14589;51.578;7.306;2023-05-20T07:30:48;101708.59;;;14.46;60.47
27040;BME280;14589;51.578;7.306;2023-05-20T07:33:26;101712.75;;;14.50;60.20
27040;BME280;14589;51.578;7.306;2023-05-20T07:35:57;101700.84;;;14.41;60.70
27040;BME280;14589;51.578;7.306;2023-05-20T07:38:27;101691.91;;;14.49;60.60
27040;BME280;14589;51.578;7.306;2023-05-20T07:41:03;101702.03;;;14.66;60.71
27040;BME280;14589;51.578;7.306;2023-05-20T07:43:35;101705.38;;;14.60;60.27
27040;BME280;14589;51.578;7.306;2023-05-20T07:46:07;101697.19;;;14.60;60.24
27040;BME280;14589;51.578;7.306;2023-05-20T07:48:37;101698.28;;;14.67;59.67
27040;BME280;14589;51.578;7.306;2023-05-20T07:51:08;101696.34;;;14.77;60.03
27040;BME280;14589;51.578;7.306;2023-05-20T07:53:38;101695.56;;;14.67;60.26
27040;BME280;14589;51.578;7.306;2023-05-20T07:56:09;101695.28;;;14.88;60.46
27040;BME280;14589;51.578;7.306;2023-05-20T07:58:41;101700.59;;;14.89;59.91
27040;BME280;14589;51.578;7.306;2023-05-20T08:01:12;101713.66;;;14.95;59.52
27040;BME280;14589;51.578;7.306;2023-05-20T08:03:42;101703.22;;;15.09;59.49
27040;BME280;14589;51.578;7.306;2023-05-20T08:06:17;101691.19;;;15.02;59.07
27040;BME280;14589;51.578;7.306;2023-05-20T08:08:50;101701.25;;;15.01;59.22
27040;BME280;14589;51.578;7.306;2023-05-20T08:11:28;101702.59;;;15.32;58.32
27040;BME280;14589;51.578;7.306;2023-05-20T08:13:58;101704.78;;;15.47;58.07
27040;BME280;14589;51.578;7.306;2023-05-20T08:16:32;101703.94;;;15.64;57.94
27040;BME280;14589;51.578;7.306;2023-05-20T08:19:03;101697.13;;;15.86;57.29
27040;BME280;14589;51.578;7.306;2023-05-20T08:21:33;101702.75;;;15.84;56.42
27040;BME280;14589;51.578;7.306;2023-05-20T08:24:04;101697.97;;;15.86;56.57
27040;BME280;14589;51.578;7.306;2023-05-20T08:26:36;101689.41;;;16.07;56.53
27040;BME280;14589;51.578;7.306;2023-05-20T08:29:06;101690.06;;;16.01;56.28
27040;BME280;14589;51.578;7.306;2023-05-20T08:31:37;101697.53;;;16.16;56.16
27040;BME280;14589;51.578;7.306;2023-05-20T08:34:08;101687.16;;;16.28;56.08
27040;BME280;14589;51.578;7.306;2023-05-20T08:36:38;101695.28;;;16.46;55.78
27040;BME280;14589;51.578;7.306;2023-05-20T08:39:09;101689.59;;;16.65;54.54
27040;BME280;14589;51.578;7.306;2023-05-20T08:41:39;101688.56;;;16.66;54.66
27040;BME280;14589;51.578;7.306;2023-05-20T08:44:10;101685.50;;;16.69;53.93
27040;BME280;14589;51.578;7.306;2023-05-20T08:46:41;101687.88;;;16.64;54.34
27040;BME280;14589;51.578;7.306;2023-05-20T08:49:13;101681.59;;;16.72;53.74
27040;BME280;14589;51.578;7.306;2023-05-20T08:51:44;101687.00;;;16.64;53.86
27040;BME280;14589;51.578;7.306;2023-05-20T08:54:16;101682.56;;;16.63;53.71
27040;BME280;14589;51.578;7.306;2023-05-20T08:56:48;101696.38;;;16.27;55.18
27040;BME280;14589;51.578;7.306;2023-05-20T08:59:18;101688.94;;;16.45;54.45
27040;BME280;14589;51.578;7.306;2023-05-20T09:01:49;101686.56;;;16.50;54.62
27040;BME280;14589;51.578;7.306;2023-05-20T09:04:20;101688.88;;;16.29;55.29
27040;BME280;14589;51.578;7.306;2023-05-20T09:06:50;101690.19;;;16.25;55.85
27040;BME280;14589;51.578;7.306;2023-05-20T09:09:24;101695.94;;;16.40;55.04
27040;BME280;14589;51.578;7.306;2023-05-20T09:11:55;101690.63;;;16.38;55.96
27040;BME280;14589;51.578;7.306;2023-05-20T09:14:25;101688.16;;;16.53;54.87
27040;BME280;14589;51.578;7.306;2023-05-20T09:16:58;101685.28;;;16.63;55.06
27040;BME280;14589;51.578;7.306;2023-05-20T09:19:28;101679.19;;;16.77;54.72
27040;BME280;14589;51.578;7.306;2023-05-20T09:21:59;101687.56;;;16.75;54.16
27040;BME280;14589;51.578;7.306;2023-05-20T09:24:30;101689.66;;;16.81;54.15
27040;BME280;14589;51.578;7.306;2023-05-20T09:27:00;101682.47;;;16.54;54.59
27040;BME280;14589;51.578;7.306;2023-05-20T09:29:32;101678.41;;;16.58;54.68
27040;BME280;14589;51.578;7.306;2023-05-20T09:32:03;101696.69;;;16.24;55.32
27040;BME280;14589;51.578;7.306;2023-05-20T09:34:34;101680.75;;;16.45;55.93
27040;BME280;14589;51.578;7.306;2023-05-20T09:37:06;101685.63;;;16.60;55.40
27040;BME280;14589;51.578;7.306;2023-05-20T09:39:54;101680.53;;;16.65;55.01
27040;BME280;14589;51.578;7.306;2023-05-20T09:43:04;101670.38;;;16.23;56.75
27040;BME280;14589;51.578;7.306;2023-05-20T09:45:33;101676.88;;;16.30;55.80
27040;BME280;14589;51.578;7.306;2023-05-20T09:48:04;101689.44;;;16.41;55.46
27040;BME280;14589;51.578;7.306;2023-05-20T09:50:35;101683.13;;;16.48;55.54
27040;BME280;14589;51.578;7.306;2023-05-20T09:53:06;101678.81;;;16.64;55.67
27040;BME280;14589;51.578;7.306;2023-05-20T09:55:38;101673.47;;;16.62;56.19
27040;BME280;14589;51.578;7.306;2023-05-20T09:58:11;101679.41;;;16.91;55.57
27040;BME280;14589;51.578;7.306;2023-05-20T10:00:43;101666.56;;;16.92;54.88
27040;BME280;14589;51.578;7.306;2023-05-20T10:03:13;101680.50;;;17.23;55.17
27040;BME280;14589;51.578;7.306;2023-05-20T10:05:49;101670.22;;;17.25;54.45
27040;BME280;14589;51.578;7.306;2023-05-20T10:08:36;101659.09;;;17.18;54.57
27040;BME280;14589;51.578;7.306;2023-05-20T10:11:15;101661.16;;;17.32;54.16
27040;BME280;14589;51.578;7.306;2023-05-20T10:17:14;101658.41;;;17.40;54.40
27040;BME280;14589;51.578;7.306;2023-05-20T10:19:46;101656.03;;;17.37;53.68
27040;BME280;14589;51.578;7.306;2023-05-20T10:22:26;101641.81;;;17.50;53.42
27040;BME280;14589;51.578;7.306;2023-05-20T10:25:05;101638.91;;;17.52;53.59
27040;BME280;14589;51.578;7.306;2023-05-20T10:27:46;101638.91;;;17.52;53.61
27040;BME280;14589;51.578;7.306;2023-05-20T10:30:19;101626.91;;;17.61;54.06
27040;BME280;14589;51.578;7.306;2023-05-20T10:32:54;101622.28;;;17.61;54.14
27040;BME280;14589;51.578;7.306;2023-05-20T10:35:28;101625.84;;;17.86;53.31
27040;BME280;14589;51.578;7.306;2023-05-20T10:38:16;101615.50;;;18.04;53.00
27040;BME280;14589;51.578;7.306;2023-05-20T10:40:47;101601.09;;;18.02;53.09
27040;BME280;14589;51.578;7.306;2023-05-20T10:43:27;101608.75;;;18.31;52.48
27040;BME280;14589;51.578;7.306;2023-05-20T10:45:58;101604.34;;;18.53;52.50
27040;BME280;14589;51.578;7.306;2023-05-20T10:48:32;101611.41;;;18.47;51.65
27040;BME280;14589;51.578;7.306;2023-05-20T10:51:02;101609.59;;;18.71;52.05
27040;BME280;14589;51.578;7.306;2023-05-20T10:53:39;101612.72;;;18.98;51.13
27040;BME280;14589;51.578;7.306;2023-05-20T10:56:17;101606.19;;;18.99;49.96
27040;BME280;14589;51.578;7.306;2023-05-20T10:58:51;101602.63;;;19.36;49.72
27040;BME280;14589;51.578;7.306;2023-05-20T11:01:24;101598.63;;;19.39;48.99
27040;BME280;14589;51.578;7.306;2023-05-20T11:03:56;101587.66;;;19.62;49.58
27040;BME280;14589;51.578;7.306;2023-05-20T11:06:27;101581.34;;;19.53;49.58
27040;BME280;14589;51.578;7.306;2023-05-20T11:09:05;101572.91;;;19.69;48.92
27040;BME280;14589;51.578;7.306;2023-05-20T11:11:35;101577.16;;;19.57;48.81
27040;BME280;14589;51.578;7.306;2023-05-20T11:14:09;101575.66;;;19.55;48.60
27040;BME280;14589;51.578;7.306;2023-05-20T11:16:42;101574.94;;;19.90;48.69
27040;BME280;14589;51.578;7.306;2023-05-20T11:19:14;101582.91;;;19.70;47.89
27040;BME280;14589;51.578;7.306;2023-05-20T11:21:45;101587.16;;;19.58;47.99
27040;BME280;14589;51.578;7.306;2023-05-20T11:24:27;101580.53;;;19.82;47.54
27040;BME280;14589;51.578;7.306;2023-05-20T11:26:59;101583.56;;;19.72;47.61
27040;BME280;14589;51.578;7.306;2023-05-20T11:29:30;101580.00;;;19.87;47.23
27040;BME280;14589;51.578;7.306;2023-05-20T11:32:04;101570.13;;;19.92;47.93
27040;BME280;14589;51.578;7.306;2023-05-20T11:34:36;101573.16;;;19.97;47.54
27040;BME280;14589;51.578;7.306;2023-05-20T11:37:08;101568.56;;;19.75;47.42
27040;BME280;14589;51.578;7.306;2023-05-20T11:39:39;101577.03;;;19.73;47.47
27040;BME280;14589;51.578;7.306;2023-05-20T11:42:10;101577.56;;;19.54;47.53
27040;BME280;14589;51.578;7.306;2023-05-20T11:44:43;101566.28;;;19.64;46.85
27040;BME280;14589;51.578;7.306;2023-05-20T11:47:14;101553.47;;;19.71;47.30
27040;BME280;14589;51.578;7.306;2023-05-20T11:49:47;101557.50;;;19.98;46.98
27040;BME280;14589;51.578;7.306;2023-05-20T11:52:18;101549.50;;;20.03;46.64
27040;BME280;14589;51.578;7.306;2023-05-20T11:54:52;101551.88;;;20.35;46.61
27040;BME280;14589;51.578;7.306;2023-05-20T11:57:22;101542.06;;;20.47;46.20
27040;BME280;14589;51.578;7.306;2023-05-20T11:59:53;101540.28;;;20.76;45.69
27040;BME280;14589;51.578;7.306;2023-05-20T12:02:23;101521.44;;;20.79;44.92
27040;BME280;14589;51.578;7.306;2023-05-20T12:04:53;101528.53;;;21.10;44.73
27040;BME280;14589;51.578;7.306;2023-05-20T12:07:24;101533.44;;;21.14;43.82
27040;BME280;14589;51.578;7.306;2023-05-20T12:09:55;101538.97;;;20.93;44.25
27040;BME280;14589;51.578;7.306;2023-05-20T12:12:26;101529.66;;;20.73;43.96
27040;BME280;14589;51.578;7.306;2023-05-20T12:14:56;101512.03;;;21.37;43.25
27040;BME280;14589;51.578;7.306;2023-05-20T12:17:27;101512.75;;;21.80;42.07
27040;BME280;14589;51.578;7.306;2023-05-20T12:19:57;101511.69;;;22.09;41.56
27040;BME280;14589;51.578;7.306;2023-05-20T12:22:27;101511.81;;;21.67;41.32
27040;BME280;14589;51.578;7.306;2023-05-20T12:24:58;101525.53;;;21.54;42.31
27040;BME280;14589;51.578;7.306;2023-05-20T12:27:28;101519.16;;;21.88;41.69
27040;BME280;14589;51.578;7.306;2023-05-20T12:29:59;101512.50;;;22.03;40.33
27040;BME280;14589;51.578;7.306;2023-05-20T12:32:30;101506.97;;;22.03;41.29
27040;BME280;14589;51.578;7.306;2023-05-20T12:35:00;101509.34;;;22.13;40.85
27040;BME280;14589;51.578;7.306;2023-05-20T12:37:35;101501.22;;;22.05;41.19
27040;BME280;14589;51.578;7.306;2023-05-20T12:40:07;101494.59;;;22.53;40.29
27040;BME280;14589;51.578;7.306;2023-05-20T12:42:38;101494.03;;;22.65;39.07
27040;BME280;14589;51.578;7.306;2023-05-20T12:45:09;101503.97;;;22.52;39.55
27040;BME280;14589;51.578;7.306;2023-05-20T12:47:39;101503.69;;;22.28;39.20
27040;BME280;14589;51.578;7.306;2023-05-20T12:50:10;101499.50;;;21.69;40.48
27040;BME280;14589;51.578;7.306;2023-05-20T12:52:40;101497.13;;;21.94;41.13
27040;BME280;14589;51.578;7.306;2023-05-20T12:55:11;101501.00;;;22.00;41.57
27040;BME280;14589;51.578;7.306;2023-05-20T12:57:45;101505.91;;;22.04;41.17
27040;BME280;14589;51.578;7.306;2023-05-20T13:00:16;101507.06;;;21.89;41.23
27040;BME280;14589;51.578;7.306;2023-05-20T13:02:46;101496.38;;;21.72;41.34
27040;BME280;14589;51.578;7.306;2023-05-20T13:05:17;101481.28;;;21.75;41.61
27040;BME280;14589;51.578;7.306;2023-05-20T13:07:48;101485.88;;;21.12;41.71
27040;BME280;14589;51.578;7.306;2023-05-20T13:10:18;101494.84;;;21.42;41.88
27040;BME280;14589;51.578;7.306;2023-05-20T13:12:49;101484.06;;;21.19;42.74
27040;BME280;14589;51.578;7.306;2023-05-20T13:15:19;101487.13;;;21.31;42.39
27040;BME280;14589;51.578;7.306;2023-05-20T13:17:49;101483.47;;;21.24;42.10